sensor_id;sensor_type;location;lat;lon;timestamp;pressure;altitude;pressure_sealevel;temperature;humidity
19236;BME280;9752;54.270;12.470;2022-11-15T00:02:21;101886.25;;;5.23;100.00
19236;BME280;9752;54.270;12.470;2022-11-15T00:07:41;101890.94;;;5.27;100.00
19236;BME280;9752;54.270;12.470;2022-11-15T00:13:04;101877.34;;;5.28;100.00
19236;BME280;9752;54.270;12.470;2022-11-15T00:18:26;101880.19;;;5.31;100.00
19236;BME280;9752;54.270;12.470;2022-11-15T00:23:47;101872.19;;;5.28;100.00
19236;BME280;9752;54.270;12.470;2022-11-15T00:29:07;101878.53;;;5.32;100.00
19236;BME280;9752;54.270;12.470;2022-11-15T00:34:28;101871.56;;;5.31;100.00
19236;BME280;9752;54.270;12.470;2022-11-15T00:39:49;101870.50;;;5.28;100.00
19236;BME280;9752;54.270;12.470;2022-11-15T00:45:09;101861.59;;;5.25;100.00
19236;BME280;9752;54.270;12.470;2022-11-15T00:50:31;101853.28;;;5.27;100.00
19236;BME280;9752;54.270;12.470;2022-11-15T00:55:51;101846.00;;;5.32;100.00
19236;BME280;9752;54.270;12.470;2022-11-15T01:01:13;101846.59;;;5.38;100.00
19236;BME280;9752;54.270;12.470;2022-11-15T01:06:35;101832.09;;;5.39;100.00
19236;BME280;9752;54.270;12.470;2022-11-15T01:11:55;101827.53;;;5.36;100.00
19236;BME280;9752;54.270;12.470;2022-11-15T01:17:16;101831.31;;;5.40;100.00
19236;BME280;9752;54.270;12.470;2022-11-15T01:22:37;101808.78;;;5.37;100.00
19236;BME280;9752;54.270;12.470;2022-11-15T01:27:58;101801.06;;;5.37;100.00
19236;BME280;9752;54.270;12.470;2022-11-15T01:33:18;101807.09;;;5.38;100.00
19236;BME280;9752;54.270;12.470;2022-11-15T01:38:40;101802.38;;;5.42;100.00
19236;BME280;9752;54.270;12.470;2022-11-15T01:50:08;101790.00;;;5.38;100.00
19236;BME280;9752;54.270;12.470;2022-11-15T01:55:31;101785.91;;;5.40;100.00
19236;BME280;9752;54.270;12.470;2022-11-15T02:00:52;101773.66;;;5.38;100.00
19236;BME280;9752;54.270;12.470;2022-11-15T02:06:12;101765.19;;;5.30;100.00
19236;BME280;9752;54.270;12.470;2022-11-15T02:11:35;101770.34;;;5.30;100.00
19236;BME280;9752;54.270;12.470;2022-11-15T02:16:59;101767.63;;;5.28;100.00
19236;BME280;9752;54.270;12.470;2022-11-15T02:22:33;101756.72;;;5.31;100.00
19236;BME280;9752;54.270;12.470;2022-11-15T02:34:00;101756.13;;;5.34;100.00
19236;BME280;9752;54.270;12.470;2022-11-15T02:39:28;101760.38;;;5.33;100.00
19236;BME280;9752;54.270;12.470;2022-11-15T02:44:51;101750.50;;;5.29;100.00
19236;BME280;9752;54.270;12.470;2022-11-15T02:50:17;101750.22;;;5.26;100.00
19236;BME280;9752;54.270;12.470;2022-11-15T02:55:42;101753.09;;;5.29;100.00
19236;BME280;9752;54.270;12.470;2022-11-15T03:01:09;101755.22;;;5.33;100.00
19236;BME280;9752;54.270;12.470;2022-11-15T03:06:37;101753.09;;;5.29;100.00
19236;BME280;9752;54.270;12.470;2022-11-15T03:12:07;101744.16;;;5.34;100.00
19236;BME280;9752;54.270;12.470;2022-11-15T03:17:38;101740.06;;;5.36;100.00
19236;BME280;9752;54.270;12.470;2022-11-15T03:23:05;101737.22;;;5.33;100.00
19236;BME280;9752;54.270;12.470;2022-11-15T03:28:31;101732.06;;;5.33;100.00
19236;BME280;9752;54.270;12.470;2022-11-15T03:33:55;101719.22;;;5.33;100.00
19236;BME280;9752;54.270;12.470;2022-11-15T03:39:20;101710.88;;;5.36;100.00
19236;BME280;9752;54.270;12.470;2022-11-15T03:44:46;101704.50;;;5.32;100.00
19236;BME280;9752;54.270;12.470;2022-11-15T03:50:12;101707.41;;;5.35;100.00
19236;BME280;9752;54.270;12.470;2022-11-15T03:55:34;101705.13;;;5.30;100.00
19236;BME280;9752;54.270;12.470;2022-11-15T04:00:54;101705.59;;;5.25;100.00
19236;BME280;9752;54.270;12.470;2022-11-15T04:06:14;101705.00;;;5.28;100.00
19236;BME280;9752;54.270;12.470;2022-11-15T04:11:36;101700.00;;;5.21;100.00
19236;BME280;9752;54.270;12.470;2022-11-15T04:16:56;101699.44;;;5.15;100.00
19236;BME280;9752;54.270;12.470;2022-11-15T04:22:16;101704.72;;;5.16;100.00
19236;BME280;9752;54.270;12.470;2022-11-15T04:27:55;101699.28;;;5.13;100.00
19236;BME280;9752;54.270;12.470;2022-11-15T04:33:16;101699.56;;;5.16;100.00
19236;BME280;9752;54.270;12.470;2022-11-15T04:38:36;101709.13;;;5.08;100.00
19236;BME280;9752;54.270;12.470;2022-11-15T04:43:58;101695.97;;;5.05;100.00
19236;BME280;9752;54.270;12.470;2022-11-15T04:49:18;101690.09;;;4.98;100.00
19236;BME280;9752;54.270;12.470;2022-11-15T04:54:38;101690.25;;;4.99;100.00
19236;BME280;9752;54.270;12.470;2022-11-15T05:00:04;101674.97;;;5.01;100.00
19236;BME280;9752;54.270;12.470;2022-11-15T05:05:24;101674.81;;;4.99;100.00
19236;BME280;9752;54.270;12.470;2022-11-15T05:10:45;101664.53;;;4.99;100.00
19236;BME280;9752;54.270;12.470;2022-11-15T05:16:07;101664.22;;;4.96;100.00
19236;BME280;9752;54.270;12.470;2022-11-15T05:21:27;101674.19;;;4.93;100.00
19236;BME280;9752;54.270;12.470;2022-11-15T05:26:47;101673.28;;;4.93;100.00
19236;BME280;9752;54.270;12.470;2022-11-15T05:32:09;101679.97;;;4.91;100.00
19236;BME280;9752;54.270;12.470;2022-11-15T05:37:30;101673.28;;;4.93;100.00
19236;BME280;9752;54.270;12.470;2022-11-15T05:42:50;101661.34;;;4.93;100.00
19236;BME280;9752;54.270;12.470;2022-11-15T05:48:12;101678.16;;;4.89;100.00
19236;BME280;9752;54.270;12.470;2022-11-15T05:53:32;101668.31;;;4.94;100.00
19236;BME280;9752;54.270;12.470;2022-11-15T05:58:55;101657.91;;;4.84;100.00
19236;BME280;9752;54.270;12.470;2022-11-15T06:04:17;101662.75;;;4.81;100.00
19236;BME280;9752;54.270;12.470;2022-11-15T06:09:38;101678.16;;;4.81;100.00
19236;BME280;9752;54.270;12.470;2022-11-15T06:14:58;101680.09;;;4.83;100.00
19236;BME280;9752;54.270;12.470;2022-11-15T06:20:20;101679.69;;;4.79;100.00
19236;BME280;9752;54.270;12.470;2022-11-15T06:25:41;101682.69;;;4.83;100.00
19236;BME280;9752;54.270;12.470;2022-11-15T06:31:05;101690.09;;;4.72;100.00
19236;BME280;9752;54.270;12.470;2022-11-15T06:36:26;101693.16;;;4.67;100.00
19236;BME280;9752;54.270;12.470;2022-11-15T06:41:47;101689.38;;;4.73;100.00
19236;BME280;9752;54.270;12.470;2022-11-15T06:47:07;101693.44;;;4.71;100.00
19236;BME280;9752;54.270;12.470;2022-11-15T06:52:29;101697.38;;;4.67;100.00
19236;BME280;9752;54.270;12.470;2022-11-15T06:57:51;101711.59;;;4.63;100.00
19236;BME280;9752;54.270;12.470;2022-11-15T07:03:12;101708.88;;;4.71;100.00
19236;BME280;9752;54.270;12.470;2022-11-15T07:08:34;101718.22;;;4.79;100.00
19236;BME280;9752;54.270;12.470;2022-11-15T07:13:54;101723.38;;;4.79;100.00
19236;BME280;9752;54.270;12.470;2022-11-15T07:19:15;101722.31;;;4.68;100.00
19236;BME280;9752;54.270;12.470;2022-11-15T07:24:36;101734.13;;;4.75;100.00
19236;BME280;9752;54.270;12.470;2022-11-15T07:29:57;101728.66;;;4.80;100.00
19236;BME280;9752;54.270;12.470;2022-11-15T07:35:17;101726.25;;;4.82;100.00
19236;BME280;9752;54.270;12.470;2022-11-15T07:40:39;101728.19;;;4.76;100.00
19236;BME280;9752;54.270;12.470;2022-11-15T07:46:04;101738.63;;;4.68;100.00
19236;BME280;9752;54.270;12.470;2022-11-15T07:51:24;101737.13;;;4.88;100.00
19236;BME280;9752;54.270;12.470;2022-11-15T07:56:46;101741.16;;;5.12;100.00
19236;BME280;9752;54.270;12.470;2022-11-15T08:02:08;101736.94;;;5.04;100.00
19236;BME280;9752;54.270;12.470;2022-11-15T08:07:29;101727.13;;;5.08;100.00
19236;BME280;9752;54.270;12.470;2022-11-15T08:12:58;101727.13;;;5.08;100.00
19236;BME280;9752;54.270;12.470;2022-11-15T08:18:18;101730.81;;;5.38;100.00
19236;BME280;9752;54.270;12.470;2022-11-15T08:23:38;101726.28;;;5.44;100.00
19236;BME280;9752;54.270;12.470;2022-11-15T08:29:00;101735.47;;;5.60;100.00
19236;BME280;9752;54.270;12.470;2022-11-15T08:34:20;101736.59;;;5.72;100.00
19236;BME280;9752;54.270;12.470;2022-11-15T08:39:40;101734.41;;;5.94;100.00
19236;BME280;9752;54.270;12.470;2022-11-15T08:45:02;101730.47;;;5.98;100.00
19236;BME280;9752;54.270;12.470;2022-11-15T08:50:23;101729.31;;;6.13;100.00
19236;BME280;9752;54.270;12.470;2022-11-15T08:55:43;101717.78;;;6.37;100.00
19236;BME280;9752;54.270;12.470;2022-11-15T09:01:06;101708.13;;;6.54;100.00
19236;BME280;9752;54.270;12.470;2022-11-15T09:06:26;101712.72;;;6.67;100.00
19236;BME280;9752;54.270;12.470;2022-11-15T09:11:46;101710.03;;;6.94;100.00
19236;BME280;9752;54.270;12.470;2022-11-15T09:17:09;101698.97;;;7.06;100.00
19236;BME280;9752;54.270;12.470;2022-11-15T09:22:29;101678.34;;;7.06;100.00
19236;BME280;9752;54.270;12.470;2022-11-15T09:27:49;101673.28;;;7.26;100.00
19236;BME280;9752;54.270;12.470;2022-11-15T09:33:12;101671.69;;;7.57;100.00
19236;BME280;9752;54.270;12.470;2022-11-15T09:38:33;101654.50;;;7.68;100.00
19236;BME280;9752;54.270;12.470;2022-11-15T09:44:01;101634.91;;;8.01;100.00
19236;BME280;9752;54.270;12.470;2022-11-15T09:49:29;101620.69;;;8.06;100.00
19236;BME280;9752;54.270;12.470;2022-11-15T09:54:50;101617.09;;;8.14;100.00
19236;BME280;9752;54.270;12.470;2022-11-15T10:00:00;101589.94;;;8.19;100.00
19236;BME280;9752;54.270;12.470;2022-11-15T10:05:16;101570.25;;;8.32;100.00
19236;BME280;9752;54.270;12.470;2022-11-15T10:10:24;101548.75;;;8.53;100.00
19236;BME280;9752;54.270;12.470;2022-11-15T10:15:29;101538.78;;;8.58;100.00
19236;BME280;9752;54.270;12.470;2022-11-15T10:20:34;101522.66;;;8.40;100.00
19236;BME280;9752;54.270;12.470;2022-11-15T10:25:39;101519.31;;;8.31;100.00
19236;BME280;9752;54.270;12.470;2022-11-15T10:30:42;101516.69;;;8.51;100.00
19236;BME280;9752;54.270;12.470;2022-11-15T10:35:45;101501.38;;;8.65;100.00
19236;BME280;9752;54.270;12.470;2022-11-15T10:40:47;101485.09;;;8.66;100.00
19236;BME280;9752;54.270;12.470;2022-11-15T10:45:49;101464.75;;;8.70;100.00
19236;BME280;9752;54.270;12.470;2022-11-15T10:50:55;101457.25;;;8.95;100.00
19236;BME280;9752;54.270;12.470;2022-11-15T10:55:59;101452.31;;;9.10;100.00
19236;BME280;9752;54.270;12.470;2022-11-15T11:01:14;101450.50;;;8.97;100.00
19236;BME280;9752;54.270;12.470;2022-11-15T11:06:18;101428.69;;;9.06;100.00
19236;BME280;9752;54.270;12.470;2022-11-15T11:11:19;101419.44;;;8.97;100.00
19236;BME280;9752;54.270;12.470;2022-11-15T11:16:41;101426.22;;;9.07;100.00
19236;BME280;9752;54.270;12.470;2022-11-15T11:21:49;101422.38;;;9.02;100.00
19236;BME280;9752;54.270;12.470;2022-11-15T11:27:04;101408.28;;;8.65;100.00
19236;BME280;9752;54.270;12.470;2022-11-15T11:32:23;101405.31;;;8.38;100.00
19236;BME280;9752;54.270;12.470;2022-11-15T11:37:36;101401.16;;;8.40;100.00
19236;BME280;9752;54.270;12.470;2022-11-15T11:42:47;101410.25;;;8.35;100.00
19236;BME280;9752;54.270;12.470;2022-11-15T11:47:59;101408.19;;;8.31;100.00
19236;BME280;9752;54.270;12.470;2022-11-15T11:53:12;101412.69;;;8.44;100.00
19236;BME280;9752;54.270;12.470;2022-11-15T11:58:17;101407.00;;;8.37;100.00
19236;BME280;9752;54.270;12.470;2022-11-15T12:03:28;101399.50;;;8.40;100.00
19236;BME280;9752;54.270;12.470;2022-11-15T12:08:41;101397.66;;;8.50;100.00
19236;BME280;9752;54.270;12.470;2022-11-15T12:13:49;101415.28;;;8.66;100.00
19236;BME280;9752;54.270;12.470;2022-11-15T12:18:54;101405.66;;;8.75;100.00
19236;BME280;9752;54.270;12.470;2022-11-15T12:24:01;101402.19;;;8.86;100.00
19236;BME280;9752;54.270;12.470;2022-11-15T12:29:11;101399.66;;;8.76;100.00
19236;BME280;9752;54.270;12.470;2022-11-15T12:34:29;101399.97;;;8.69;100.00
19236;BME280;9752;54.270;12.470;2022-11-15T12:45:28;101392.78;;;8.65;100.00
19236;BME280;9752;54.270;12.470;2022-11-15T12:50:55;101386.69;;;8.64;100.00
19236;BME280;9752;54.270;12.470;2022-11-15T12:56:20;101391.53;;;8.59;100.00
19236;BME280;9752;54.270;12.470;2022-11-15T13:01:55;101392.78;;;8.65;100.00
19236;BME280;9752;54.270;12.470;2022-11-15T13:07:00;101393.69;;;8.43;100.00
19236;BME280;9752;54.270;12.470;2022-11-15T13:12:03;101389.59;;;8.35;100.00
19236;BME280;9752;54.270;12.470;2022-11-15T13:17:24;101379.00;;;8.32;100.00
19236;BME280;9752;54.270;12.470;2022-11-15T13:22:27;101371.44;;;8.45;100.00
19236;BME280;9752;54.270;12.470;2022-11-15T13:27:47;101369.63;;;8.44;100.00
19236;BME280;9752;54.270;12.470;2022-11-15T13:32:51;101363.25;;;8.51;100.00
19236;BME280;9752;54.270;12.470;2022-11-15T13:37:55;101353.09;;;8.42;100.00
19236;BME280;9752;54.270;12.470;2022-11-15T13:42:58;101355.84;;;8.33;100.00
19236;BME280;9752;54.270;12.470;2022-11-15T13:48:03;101356.09;;;8.14;100.00
19236;BME280;9752;54.270;12.470;2022-11-15T13:53:06;101356.13;;;8.04;100.00
19236;BME280;9752;54.270;12.470;2022-11-15T13:58:09;101353.63;;;7.94;100.00
19236;BME280;9752;54.270;12.470;2022-11-15T14:03:18;101353.25;;;7.89;100.00
19236;BME280;9752;54.270;12.470;2022-11-15T14:08:23;101358.78;;;7.94;100.00
19236;BME280;9752;54.270;12.470;2022-11-15T14:13:30;101349.75;;;7.89;100.00
19236;BME280;9752;54.270;12.470;2022-11-15T14:18:45;101342.63;;;7.64;100.00
19236;BME280;9752;54.270;12.470;2022-11-15T14:23:47;101338.03;;;7.50;100.00
19236;BME280;9752;54.270;12.470;2022-11-15T14:28:50;101355.91;;;7.16;100.00
19236;BME280;9752;54.270;12.470;2022-11-15T14:33:54;101370.50;;;7.15;100.00
19236;BME280;9752;54.270;12.470;2022-11-15T14:38:55;101389.44;;;7.26;100.00
19236;BME280;9752;54.270;12.470;2022-11-15T14:43:57;101376.78;;;7.29;100.00
19236;BME280;9752;54.270;12.470;2022-11-15T14:49:00;101389.97;;;7.32;100.00
19236;BME280;9752;54.270;12.470;2022-11-15T14:54:02;101393.56;;;7.34;100.00
19236;BME280;9752;54.270;12.470;2022-11-15T14:59:04;101388.41;;;7.34;100.00
19236;BME280;9752;54.270;12.470;2022-11-15T15:04:08;101395.34;;;7.35;100.00
19236;BME280;9752;54.270;12.470;2022-11-15T15:09:11;101391.47;;;7.30;100.00
19236;BME280;9752;54.270;12.470;2022-11-15T15:14:13;101388.41;;;7.34;100.00
19236;BME280;9752;54.270;12.470;2022-11-15T15:19:17;101398.97;;;7.37;100.00
19236;BME280;9752;54.270;12.470;2022-11-15T15:24:18;101402.69;;;7.41;100.00
19236;BME280;9752;54.270;12.470;2022-11-15T15:29:20;101407.72;;;7.39;100.00
19236;BME280;9752;54.270;12.470;2022-11-15T15:34:23;101414.31;;;7.36;100.00
19236;BME280;9752;54.270;12.470;2022-11-15T15:39:25;101419.88;;;7.40;100.00
19236;BME280;9752;54.270;12.470;2022-11-15T15:44:27;101433.81;;;7.42;100.00
19236;BME280;9752;54.270;12.470;2022-11-15T15:49:30;101439.50;;;7.38;100.00
19236;BME280;9752;54.270;12.470;2022-11-15T15:54:31;101443.72;;;7.38;100.00
19236;BME280;9752;54.270;12.470;2022-11-15T15:59:33;101455.75;;;7.37;100.00
19236;BME280;9752;54.270;12.470;2022-11-15T16:04:36;101459.13;;;7.36;100.00
19236;BME280;9752;54.270;12.470;2022-11-15T16:09:38;101459.13;;;7.36;100.00
19236;BME280;9752;54.270;12.470;2022-11-15T16:14:58;101450.34;;;7.34;100.00
19236;BME280;9752;54.270;12.470;2022-11-15T16:20:02;101449.03;;;7.39;100.00
19236;BME280;9752;54.270;12.470;2022-11-15T16:25:04;101446.31;;;7.38;100.00
19236;BME280;9752;54.270;12.470;2022-11-15T16:30:10;101455.34;;;7.43;100.00
19236;BME280;9752;54.270;12.470;2022-11-15T16:35:16;101458.81;;;7.43;100.00
19236;BME280;9752;54.270;12.470;2022-11-15T16:40:27;101462.47;;;7.46;100.00
19236;BME280;9752;54.270;12.470;2022-11-15T16:45:30;101460.66;;;7.45;100.00
19236;BME280;9752;54.270;12.470;2022-11-15T16:50:36;101450.81;;;7.51;100.00
19236;BME280;9752;54.270;12.470;2022-11-15T16:55:40;101445.53;;;7.49;100.00
19236;BME280;9752;54.270;12.470;2022-11-15T17:00:42;101449.78;;;7.49;100.00
19236;BME280;9752;54.270;12.470;2022-11-15T17:05:45;101454.97;;;7.49;100.00
19236;BME280;9752;54.270;12.470;2022-11-15T17:10:47;101457.31;;;7.46;100.00
19236;BME280;9752;54.270;12.470;2022-11-15T17:15:48;101461.69;;;7.47;100.00
19236;BME280;9752;54.270;12.470;2022-11-15T17:20:51;101459.34;;;7.50;100.00
19236;BME280;9752;54.270;12.470;2022-11-15T17:25:57;101460.00;;;7.57;100.00
19236;BME280;9752;54.270;12.470;2022-11-15T17:30:59;101457.53;;;7.59;100.00
19236;BME280;9752;54.270;12.470;2022-11-15T17:36:05;101466.06;;;7.58;100.00
19236;BME280;9752;54.270;12.470;2022-11-15T17:41:09;101469.38;;;7.57;100.00
19236;BME280;9752;54.270;12.470;2022-11-15T17:46:14;101474.94;;;7.61;100.00
19236;BME280;9752;54.270;12.470;2022-11-15T17:51:18;101477.53;;;7.61;100.00
19236;BME280;9752;54.270;12.470;2022-11-15T17:56:21;101480.47;;;7.66;100.00
19236;BME280;9752;54.270;12.470;2022-11-15T18:01:25;101480.63;;;7.68;100.00
19236;BME280;9752;54.270;12.470;2022-11-15T18:06:31;101486.69;;;7.68;100.00
19236;BME280;9752;54.270;12.470;2022-11-15T18:11:35;101484.09;;;7.68;100.00
19236;BME280;9752;54.270;12.470;2022-11-15T18:16:37;101489.25;;;7.68;100.00
19236;BME280;9752;54.270;12.470;2022-11-15T18:21:42;101492.91;;;7.70;100.00
19236;BME280;9752;54.270;12.470;2022-11-15T18:26:57;101494.69;;;7.71;100.00
19236;BME280;9752;54.270;12.470;2022-11-15T18:31:59;101479.84;;;7.69;100.00
19236;BME280;9752;54.270;12.470;2022-11-15T18:37:05;101483.59;;;7.72;100.00
19236;BME280;9752;54.270;12.470;2022-11-15T18:42:07;101476.25;;;7.67;100.00
19236;BME280;9752;54.270;12.470;2022-11-15T18:47:09;101476.88;;;7.64;100.00
19236;BME280;9752;54.270;12.470;2022-11-15T18:52:12;101475.09;;;7.63;100.00
19236;BME280;9752;54.270;12.470;2022-11-15T18:57:13;101477.66;;;7.63;100.00
19236;BME280;9752;54.270;12.470;2022-11-15T19:02:15;101479.31;;;7.62;100.00
19236;BME280;9752;54.270;12.470;2022-11-15T19:07:18;101482.31;;;7.67;100.00
19236;BME280;9752;54.270;12.470;2022-11-15T19:12:20;101476.66;;;7.61;100.00
19236;BME280;9752;54.270;12.470;2022-11-15T19:17:21;101473.78;;;7.58;100.00
19236;BME280;9752;54.270;12.470;2022-11-15T19:22:24;101469.38;;;7.57;100.00
19236;BME280;9752;54.270;12.470;2022-11-15T19:27:26;101481.81;;;7.61;100.00
19236;BME280;9752;54.270;12.470;2022-11-15T19:32:27;101490.31;;;7.60;100.00
19236;BME280;9752;54.270;12.470;2022-11-15T19:37:31;101502.69;;;7.64;100.00
19236;BME280;9752;54.270;12.470;2022-11-15T19:42:33;101483.59;;;7.62;100.00
19236;BME280;9752;54.270;12.470;2022-11-15T19:47:34;101486.44;;;7.65;100.00
19236;BME280;9752;54.270;12.470;2022-11-15T19:52:37;101472.50;;;7.63;100.00
19236;BME280;9752;54.270;12.470;2022-11-15T19:57:39;101463.59;;;7.59;100.00
19236;BME280;9752;54.270;12.470;2022-11-15T20:02:41;101458.81;;;7.64;100.00
19236;BME280;9752;54.270;12.470;2022-11-15T20:07:46;101458.66;;;7.62;100.00
19236;BME280;9752;54.270;12.470;2022-11-15T20:12:48;101466.56;;;7.64;100.00
19236;BME280;9752;54.270;12.470;2022-11-15T20:17:50;101464.91;;;7.65;100.00
19236;BME280;9752;54.270;12.470;2022-11-15T20:22:53;101447.94;;;7.68;100.00
19236;BME280;9752;54.270;12.470;2022-11-15T20:27:55;101437.88;;;7.71;100.00
19236;BME280;9752;54.270;12.470;2022-11-15T20:32:57;101425.38;;;7.76;100.00
19236;BME280;9752;54.270;12.470;2022-11-15T20:38:00;101411.66;;;7.77;100.00
19236;BME280;9752;54.270;12.470;2022-11-15T20:43:01;101401.19;;;7.75;100.00
19236;BME280;9752;54.270;12.470;2022-11-15T20:48:04;101394.59;;;7.79;100.00
19236;BME280;9752;54.270;12.470;2022-11-15T20:53:07;101404.81;;;7.77;100.00
19236;BME280;9752;54.270;12.470;2022-11-15T20:58:09;101392.91;;;7.79;100.00
19236;BME280;9752;54.270;12.470;2022-11-15T21:03:12;101380.00;;;7.79;100.00
19236;BME280;9752;54.270;12.470;2022-11-15T21:08:15;101375.84;;;7.81;100.00
19236;BME280;9752;54.270;12.470;2022-11-15T21:13:17;101376.66;;;7.80;100.00
19236;BME280;9752;54.270;12.470;2022-11-15T21:18:19;101368.25;;;7.83;100.00
19236;BME280;9752;54.270;12.470;2022-11-15T21:23:22;101356.13;;;7.82;100.00
19236;BME280;9752;54.270;12.470;2022-11-15T21:28:24;101356.25;;;7.84;100.00
19236;BME280;9752;54.270;12.470;2022-11-15T21:33:26;101353.75;;;7.85;100.00
19236;BME280;9752;54.270;12.470;2022-11-15T21:38:29;101345.50;;;7.89;100.00
19236;BME280;9752;54.270;12.470;2022-11-15T21:43:31;101334.25;;;7.89;100.00
19236;BME280;9752;54.270;12.470;2022-11-15T21:48:34;101323.03;;;7.88;100.00
19236;BME280;9752;54.270;12.470;2022-11-15T21:53:37;101308.00;;;7.94;100.00
19236;BME280;9752;54.270;12.470;2022-11-15T21:58:39;101306.09;;;7.92;100.00
19236;BME280;9752;54.270;12.470;2022-11-15T22:03:41;101291.63;;;7.94;100.00
19236;BME280;9752;54.270;12.470;2022-11-15T22:08:45;101269.94;;;7.92;100.00
19236;BME280;9752;54.270;12.470;2022-11-15T22:13:47;101281.03;;;7.91;100.00
19236;BME280;9752;54.270;12.470;2022-11-15T22:18:48;101284.84;;;7.84;100.00
19236;BME280;9752;54.270;12.470;2022-11-15T22:23:51;101270.47;;;7.88;100.00
19236;BME280;9752;54.270;12.470;2022-11-15T22:28:53;101251.38;;;7.86;100.00
19236;BME280;9752;54.270;12.470;2022-11-15T22:33:55;101233.19;;;7.84;100.00
19236;BME280;9752;54.270;12.470;2022-11-15T22:38:58;101233.81;;;7.81;100.00
19236;BME280;9752;54.270;12.470;2022-11-15T22:44:00;101225.56;;;7.86;100.00
19236;BME280;9752;54.270;12.470;2022-11-15T22:49:02;101220.16;;;7.82;100.00
19236;BME280;9752;54.270;12.470;2022-11-15T22:54:05;101207.66;;;7.77;100.00
19236;BME280;9752;54.270;12.470;2022-11-15T22:59:08;101196.72;;;7.69;100.00
19236;BME280;9752;54.270;12.470;2022-11-15T23:04:09;101191.81;;;7.72;100.00
19236;BME280;9752;54.270;12.470;2022-11-15T23:09:13;101194.50;;;7.74;100.00
19236;BME280;9752;54.270;12.470;2022-11-15T23:14:14;101196.97;;;7.72;100.00
19236;BME280;9752;54.270;12.470;2022-11-15T23:19:16;101187.31;;;7.48;100.00
19236;BME280;9752;54.270;12.470;2022-11-15T23:24:20;101181.47;;;7.28;100.00
19236;BME280;9752;54.270;12.470;2022-11-15T23:29:24;101185.06;;;7.30;100.00
19236;BME280;9752;54.270;12.470;2022-11-15T23:34:26;101178.84;;;7.38;100.00
19236;BME280;9752;54.270;12.470;2022-11-15T23:39:29;101157.91;;;7.46;100.00
19236;BME280;9752;54.270;12.470;2022-11-15T23:44:31;101158.66;;;7.45;100.00
19236;BME280;9752;54.270;12.470;2022-11-15T23:49:33;101165.66;;;7.46;100.00
19236;BME280;9752;54.270;12.470;2022-11-15T23:54:36;101165.31;;;7.53;100.00
19236;BME280;9752;54.270;12.470;2022-11-15T23:59:39;101162.75;;;7.53;100.00
